Jonesborough, TN

8:24 AM EDT on September 02, 2015 (GMT -0400)
Sand Valley Estates | | Change Station
CLOSE
Current Station
Personal Weather Station
Location: Jonesborough, TN
Elevation: 1732 ft
Nearby Weather Stations

Elev 1732 ft 36.27 °N, 82.51 °W | Updated 3 minutes ago

Clear
Clear
67.5 °F
Feels Like 67.5 °F
N
0.0
Wind Variable Wind from NNE
Gusts 0.0 mph

Today
High -- | Low -- °F
--% Chance of Precip.
Yesterday
High -- | Low -- °F
Precip. -- in
7:02 AM 7:56 PM
Waning Gibbous, 80% visible
Pressure 30.12 in
Visibility 6.0 miles
Clouds Scattered Clouds 25000 ft
Dew Point 65 °F
Humidity 92%
Rainfall 0.00 in
Snow Depth Not available.
UV 0 out of 12
Pollen 9.00 out of 12
Air Quality Not available.
Flu Activity Not available.
METAR KTRI 021153Z 00000KT 6SM BR SCT250 19/18 A3019 RMK AO2 SLP197 T01890178 10200 20172 53012
Pressure 30.12 in
Visibility 6.0 miles
Clouds Scattered Clouds 25000 ft
Dew Point 65 °F
Humidity 92%
Rainfall 0.00 in
Snow Depth Not available.
UV 0 out of 12
Pollen 9.00 out of 12
Air Quality Not available.
Flu Activity Not available.
METAR KTRI 021153Z 00000KT 6SM BR SCT250 19/18 A3019 RMK AO2 SLP197 T01890178 10200 20172 53012

10-Day Weather Forecast

×

Almanac

Astronomy

Sep. 02, 2015 Rise Set
Actual Time
Civil Twilight
Nautical Twilight
Astronomical Twilight
Moon
Length of Visible Light
Length of Day
Tomorrow will be .
, % of the Moon is Illuminated

Today's Extremes

State Highs State Lows

Community

WunderPhotos

Upload Photos

1,851,738 photos uploaded!

WunderBlogs® & News

Nearby

Air Quality

  Air Quality AQ Index Pollutant
Not available.

Snow Depth

Station Depth Elevation

Earthquake Activity

City Distance Mag. Time & Date
Minimum magnitude displayed is 2.5.

Coastal Water Temperatures

Place Temperature

Stations

Nearby Weather Stations

Station Location Temp. Windchill Dew Point Humidity Wind Precip. Elev Updated Type